createdAt,value
2023-03-20T00:05:29.740Z,1.1
2023-03-20T00:15:30.370Z,1.3
2023-03-20T00:25:31.135Z,1.9
2023-03-20T00:35:31.776Z,1.5
2023-03-20T00:45:32.316Z,1.8
2023-03-20T00:55:33.023Z,1.6
2023-03-20T01:05:33.725Z,1.4
2023-03-20T01:15:34.306Z,1.6
2023-03-20T01:25:34.679Z,1.7
2023-03-20T01:35:35.422Z,1.8
2023-03-20T01:45:36.048Z,1.6
2023-03-20T01:55:36.588Z,1.5
2023-03-20T02:05:37.333Z,1.7
2023-03-20T02:15:37.948Z,1.7
2023-03-20T02:25:38.280Z,1.8
2023-03-20T02:35:39.057Z,1.8
2023-03-20T02:45:40.128Z,2
2023-03-20T02:55:39.783Z,2.5
2023-03-20T03:05:40.297Z,3.5
2023-03-20T03:15:40.766Z,4.1
2023-03-20T03:25:41.220Z,4
2023-03-20T03:35:41.831Z,4.3
2023-03-20T03:45:42.151Z,4.8
2023-03-20T03:55:42.591Z,7.1
2023-03-20T04:05:42.931Z,6.5
2023-03-20T04:15:43.622Z,8.7
2023-03-20T04:25:43.879Z,6.8
2023-03-20T04:35:44.320Z,6.7
2023-03-20T04:45:44.744Z,5.6
2023-03-20T04:55:45.226Z,4.6
2023-03-20T05:05:45.691Z,7
2023-03-20T05:15:46.058Z,8.8
2023-03-20T05:25:46.418Z,6
2023-03-20T05:35:46.834Z,4.9
2023-03-20T05:45:47.208Z,3.8
2023-03-20T05:55:47.526Z,3.6
2023-03-20T06:05:47.930Z,3.3
2023-03-20T06:15:48.427Z,2.4
2023-03-20T06:25:48.803Z,2.6
2023-03-20T06:35:49.401Z,2.3
2023-03-20T06:45:49.762Z,3.1
2023-03-20T06:55:50.156Z,2.8
2023-03-20T07:05:50.612Z,2.5
2023-03-20T07:16:03.590Z,2.7
2023-03-20T07:25:51.627Z,2.6
2023-03-20T07:35:52.038Z,2.6
2023-03-20T07:45:52.450Z,2.4
2023-03-20T07:55:52.832Z,2.4
2023-03-20T08:05:53.290Z,2.5
2023-03-20T08:15:53.799Z,2.2
2023-03-20T08:25:54.210Z,2.1
2023-03-20T08:35:54.675Z,2.3
2023-03-20T08:45:55.198Z,2.1
2023-03-20T08:55:55.574Z,2.2
2023-03-20T09:05:55.866Z,2.7
2023-03-20T09:15:56.257Z,2.7
2023-03-20T09:25:56.535Z,2.4
2023-03-20T09:35:56.846Z,2.7
2023-03-20T09:45:57.141Z,3
2023-03-20T09:55:57.608Z,3.1
2023-03-20T10:05:57.820Z,3.6
2023-03-20T10:15:58.157Z,3
2023-03-20T10:25:58.517Z,2.7
2023-03-20T10:35:58.937Z,2.9
2023-03-20T10:45:59.260Z,2.7
2023-03-20T10:55:59.621Z,2.5
2023-03-20T11:06:09.164Z,3
2023-03-20T11:16:00.356Z,2.9
2023-03-20T11:26:00.730Z,3
2023-03-20T11:36:01.018Z,3.2
2023-03-20T11:46:01.361Z,2.9
2023-03-20T11:56:04.095Z,3.3
2023-03-20T12:06:01.962Z,3.5
2023-03-20T12:16:02.325Z,2.6
2023-03-20T12:26:02.732Z,2.9
2023-03-20T12:36:03.150Z,2.4
2023-03-20T12:46:03.625Z,2.8
2023-03-20T12:56:04.031Z,2.6
2023-03-20T13:06:04.478Z,2.2
2023-03-20T13:16:04.970Z,2.8
2023-03-20T13:26:05.445Z,2
2023-03-20T13:36:05.997Z,2.7
2023-03-20T13:46:06.528Z,2.6
2023-03-20T13:56:07.118Z,2.4
2023-03-20T14:06:07.747Z,2.4
2023-03-20T14:16:08.421Z,2.5
2023-03-20T14:26:09.083Z,2.6
2023-03-20T14:36:09.747Z,2.6
2023-03-20T14:46:10.510Z,2.7
2023-03-20T14:56:11.154Z,3.2
2023-03-20T15:06:11.917Z,2.7
2023-03-20T15:16:12.707Z,2.8
2023-03-20T15:26:13.529Z,3.6
2023-03-20T15:36:14.479Z,3.2
2023-03-20T15:46:18.218Z,3
2023-03-20T15:56:18.522Z,3.2
2023-03-20T16:06:17.016Z,2.8
2023-03-20T16:16:17.860Z,3
2023-03-20T16:26:18.677Z,3.1
2023-03-20T16:36:19.478Z,3.4
2023-03-20T16:46:20.406Z,3.3
2023-03-20T16:56:21.333Z,3.6
2023-03-20T17:06:22.203Z,3.2
2023-03-20T17:16:23.115Z,3.5
2023-03-20T17:26:24.048Z,3.3
2023-03-20T17:36:25.052Z,3.2
2023-03-20T17:46:25.988Z,3.4
2023-03-20T17:56:29.305Z,3.5
2023-03-20T18:06:27.963Z,3.7
2023-03-20T18:16:29.003Z,3.4
2023-03-20T18:26:30.077Z,3.2
2023-03-20T18:36:31.056Z,3.4
2023-03-20T18:46:32.325Z,3.9
2023-03-20T18:56:33.213Z,3.4
2023-03-20T19:06:34.251Z,3.3
2023-03-20T19:16:35.364Z,3
2023-03-20T19:26:36.339Z,3.1
2023-03-20T19:36:37.348Z,3.8
2023-03-20T19:46:40.539Z,3
2023-03-20T19:56:39.426Z,3.2
2023-03-20T20:06:41.704Z,3.5
2023-03-20T20:16:41.607Z,3.7
2023-03-20T20:26:53.163Z,3.2
2023-03-20T20:37:29.057Z,3.6
2023-03-20T20:46:44.759Z,3.7
2023-03-20T20:56:46.298Z,3.4
2023-03-20T21:07:09.181Z,4
2023-03-20T21:16:47.929Z,3.9
2023-03-20T21:26:48.960Z,4.2
2023-03-20T21:36:50.066Z,3.3
2023-03-20T22:17:46.909Z,2.6
2023-03-20T22:37:46.231Z,4.5
2023-03-20T22:46:57.047Z,2.8
2023-03-20T22:56:57.855Z,4.2
2023-03-20T23:06:58.741Z,2.3
2023-03-20T23:16:59.619Z,1.7
2023-03-20T23:27:00.356Z,1.6
2023-03-20T23:37:01.215Z,1.4
2023-03-20T23:47:08.324Z,1.6
2023-03-20T23:57:02.657Z,1.5
